Etusivu
METAR-TAF:

METAR-TAF

Lentoasemat :

Washington Municipal Airport

Washington, Iowa, Yhdysvallat

Leveyspiiri: 41-17N, Pituuspiiri: 091-40W, korkeus merenpinnasta: 230 m

Tämänhetkinen sää

Tämä raportti tehtiin 34 minuuttia sitten, kello 00.55 UTC
Tuuli 14 kn luoteesta puuskistuen 21 kn:hen
Lämpötila 0°C
Kosteus 100%
Ilmanpaine 1017 hPa
Näkyvyys: 16.1 km
Hajonneita pilviä 1600 ft:n korkeudessa

METAR: KAWG 010055Z AUTO 31014G21KT 10SM BKN016 00/00 A3003 RMK AO2

Aika: 19:29 (01:29 UTC)


TAF: puuttuu

Säähavainnot ja -ennusteet yli 4000 lentoasemalta (METAR- ja TAF-raportit).

Käytössä olevat sääasemat on merkitty karttaan keltaisilla ja punaisilla pisteillä.

Aseta hiiri pisteen päälle nähdäksesi sääaseman nimen.

Klikkaa sitten nähdäksesi säähavainnot ja -ennusteet.

Kartan vaihtaminen: klikkaa mustalla rastilla varustettuja vihreitä pisteitä, niin voit zoomata sisään; viivalla varustettua vihreää pistettä, niin voit zoomata ulos tai vihreitä nuolia, niin pääset viereisille kartoille.


METAR-TAF: